sensor_id;sensor_type;location;lat;lon;timestamp;temperature;humidity
16728;DHT22;8482;54.396;18.590;2023-07-29T00:01:52;17.40;99.90
16728;DHT22;8482;54.396;18.590;2023-07-29T00:04:19;17.40;99.90
16728;DHT22;8482;54.396;18.590;2023-07-29T00:06:45;17.40;99.90
16728;DHT22;8482;54.396;18.590;2023-07-29T00:09:11;17.40;99.90
16728;DHT22;8482;54.396;18.590;2023-07-29T00:11:38;17.40;99.90
16728;DHT22;8482;54.396;18.590;2023-07-29T00:14:03;17.40;99.90
16728;DHT22;8482;54.396;18.590;2023-07-29T00:16:29;17.40;99.90
16728;DHT22;8482;54.396;18.590;2023-07-29T00:18:55;17.30;99.90
16728;DHT22;8482;54.396;18.590;2023-07-29T00:21:21;17.30;99.90
16728;DHT22;8482;54.396;18.590;2023-07-29T00:23:47;17.30;99.90
16728;DHT22;8482;54.396;18.590;2023-07-29T00:26:13;17.30;99.90
16728;DHT22;8482;54.396;18.590;2023-07-29T00:28:38;17.30;99.90
16728;DHT22;8482;54.396;18.590;2023-07-29T00:31:04;17.30;99.90
16728;DHT22;8482;54.396;18.590;2023-07-29T00:33:30;17.30;99.90
16728;DHT22;8482;54.396;18.590;2023-07-29T00:35:56;17.30;99.90
16728;DHT22;8482;54.396;18.590;2023-07-29T00:38:22;17.20;99.90
16728;DHT22;8482;54.396;18.590;2023-07-29T00:40:48;17.20;99.90
16728;DHT22;8482;54.396;18.590;2023-07-29T00:43:13;17.20;99.90
16728;DHT22;8482;54.396;18.590;2023-07-29T00:45:41;17.20;99.90
16728;DHT22;8482;54.396;18.590;2023-07-29T00:48:09;17.20;99.90
16728;DHT22;8482;54.396;18.590;2023-07-29T00:50:35;17.20;99.90
16728;DHT22;8482;54.396;18.590;2023-07-29T00:53:02;17.20;99.90
16728;DHT22;8482;54.396;18.590;2023-07-29T00:55:28;17.10;99.90
16728;DHT22;8482;54.396;18.590;2023-07-29T00:57:54;17.20;99.90
16728;DHT22;8482;54.396;18.590;2023-07-29T01:00:21;17.10;99.90
16728;DHT22;8482;54.396;18.590;2023-07-29T01:02:47;17.20;99.90
16728;DHT22;8482;54.396;18.590;2023-07-29T01:05:16;17.20;99.90
16728;DHT22;8482;54.396;18.590;2023-07-29T01:10:26;17.20;99.90
16728;DHT22;8482;54.396;18.590;2023-07-29T01:16:12;17.20;99.90
16728;DHT22;8482;54.396;18.590;2023-07-29T01:18:54;17.20;99.90
16728;DHT22;8482;54.396;18.590;2023-07-29T01:21:21;17.20;99.90
16728;DHT22;8482;54.396;18.590;2023-07-29T01:23:47;17.20;99.90
16728;DHT22;8482;54.396;18.590;2023-07-29T01:26:17;17.20;99.90
16728;DHT22;8482;54.396;18.590;2023-07-29T01:28:43;17.20;99.90
16728;DHT22;8482;54.396;18.590;2023-07-29T01:31:34;17.20;99.90
16728;DHT22;8482;54.396;18.590;2023-07-29T01:34:18;17.10;99.90
16728;DHT22;8482;54.396;18.590;2023-07-29T01:36:53;17.10;99.90
16728;DHT22;8482;54.396;18.590;2023-07-29T01:39:24;17.10;99.90
16728;DHT22;8482;54.396;18.590;2023-07-29T01:41:54;17.10;99.90
16728;DHT22;8482;54.396;18.590;2023-07-29T01:44:20;17.10;99.90
16728;DHT22;8482;54.396;18.590;2023-07-29T01:46:46;17.10;99.90
16728;DHT22;8482;54.396;18.590;2023-07-29T01:49:12;17.10;99.90
16728;DHT22;8482;54.396;18.590;2023-07-29T01:51:38;17.10;99.90
16728;DHT22;8482;54.396;18.590;2023-07-29T01:54:04;17.10;99.90
16728;DHT22;8482;54.396;18.590;2023-07-29T01:56:30;17.10;99.90
16728;DHT22;8482;54.396;18.590;2023-07-29T01:58:55;17.10;99.90
16728;DHT22;8482;54.396;18.590;2023-07-29T02:01:22;17.00;99.90
16728;DHT22;8482;54.396;18.590;2023-07-29T02:03:47;17.00;99.90
16728;DHT22;8482;54.396;18.590;2023-07-29T02:06:20;17.00;99.90
16728;DHT22;8482;54.396;18.590;2023-07-29T02:08:46;16.90;99.90
16728;DHT22;8482;54.396;18.590;2023-07-29T02:11:11;16.90;99.90
16728;DHT22;8482;54.396;18.590;2023-07-29T02:13:37;16.90;99.90
16728;DHT22;8482;54.396;18.590;2023-07-29T02:16:03;16.80;99.90
16728;DHT22;8482;54.396;18.590;2023-07-29T02:18:29;16.80;99.90
16728;DHT22;8482;54.396;18.590;2023-07-29T02:20:55;16.80;99.90
16728;DHT22;8482;54.396;18.590;2023-07-29T02:23:21;16.80;99.90
16728;DHT22;8482;54.396;18.590;2023-07-29T02:25:47;16.80;99.90
16728;DHT22;8482;54.396;18.590;2023-07-29T02:28:12;16.70;99.90
16728;DHT22;8482;54.396;18.590;2023-07-29T02:30:41;16.70;99.90
16728;DHT22;8482;54.396;18.590;2023-07-29T02:33:09;16.70;99.90
16728;DHT22;8482;54.396;18.590;2023-07-29T02:35:35;16.60;99.90
16728;DHT22;8482;54.396;18.590;2023-07-29T02:38:01;16.70;99.90
16728;DHT22;8482;54.396;18.590;2023-07-29T02:40:27;16.60;99.90
16728;DHT22;8482;54.396;18.590;2023-07-29T02:42:54;16.60;99.90
16728;DHT22;8482;54.396;18.590;2023-07-29T02:45:20;16.60;99.90
16728;DHT22;8482;54.396;18.590;2023-07-29T02:47:46;16.60;99.90
16728;DHT22;8482;54.396;18.590;2023-07-29T02:50:12;16.60;99.90
16728;DHT22;8482;54.396;18.590;2023-07-29T02:52:38;16.50;99.90
16728;DHT22;8482;54.396;18.590;2023-07-29T02:55:04;16.50;99.90
16728;DHT22;8482;54.396;18.590;2023-07-29T02:57:30;16.50;99.90
16728;DHT22;8482;54.396;18.590;2023-07-29T02:59:56;16.50;99.90
16728;DHT22;8482;54.396;18.590;2023-07-29T03:02:22;16.50;99.90
16728;DHT22;8482;54.396;18.590;2023-07-29T03:04:48;16.50;99.90
16728;DHT22;8482;54.396;18.590;2023-07-29T03:07:14;16.50;99.90
16728;DHT22;8482;54.396;18.590;2023-07-29T03:09:40;16.50;99.90
16728;DHT22;8482;54.396;18.590;2023-07-29T03:12:07;16.40;99.90
16728;DHT22;8482;54.396;18.590;2023-07-29T03:14:33;16.40;99.90
16728;DHT22;8482;54.396;18.590;2023-07-29T03:17:03;16.40;99.90
16728;DHT22;8482;54.396;18.590;2023-07-29T03:19:31;16.40;99.90
16728;DHT22;8482;54.396;18.590;2023-07-29T03:21:57;16.40;99.90
16728;DHT22;8482;54.396;18.590;2023-07-29T03:24:23;16.40;99.90
16728;DHT22;8482;54.396;18.590;2023-07-29T03:26:49;16.40;99.90
16728;DHT22;8482;54.396;18.590;2023-07-29T03:29:15;16.40;99.90
16728;DHT22;8482;54.396;18.590;2023-07-29T03:31:40;16.40;99.90
16728;DHT22;8482;54.396;18.590;2023-07-29T03:34:06;16.40;99.90
16728;DHT22;8482;54.396;18.590;2023-07-29T03:36:32;16.40;99.90
16728;DHT22;8482;54.396;18.590;2023-07-29T03:38:58;16.40;99.90
16728;DHT22;8482;54.396;18.590;2023-07-29T03:41:24;16.40;99.90
16728;DHT22;8482;54.396;18.590;2023-07-29T03:43:49;16.40;99.90
16728;DHT22;8482;54.396;18.590;2023-07-29T03:46:15;16.50;99.90
16728;DHT22;8482;54.396;18.590;2023-07-29T03:48:45;16.40;99.90
16728;DHT22;8482;54.396;18.590;2023-07-29T03:51:10;16.40;99.90
16728;DHT22;8482;54.396;18.590;2023-07-29T03:53:36;16.50;99.90
16728;DHT22;8482;54.396;18.590;2023-07-29T03:56:02;16.40;99.90
16728;DHT22;8482;54.396;18.590;2023-07-29T03:58:28;16.50;99.90
16728;DHT22;8482;54.396;18.590;2023-07-29T04:00:54;16.50;99.90
16728;DHT22;8482;54.396;18.590;2023-07-29T04:03:19;16.50;99.90
16728;DHT22;8482;54.396;18.590;2023-07-29T04:05:45;16.50;99.90
16728;DHT22;8482;54.396;18.590;2023-07-29T04:08:11;16.50;99.90
16728;DHT22;8482;54.396;18.590;2023-07-29T04:10:37;16.50;99.90
16728;DHT22;8482;54.396;18.590;2023-07-29T04:13:03;16.60;99.90
16728;DHT22;8482;54.396;18.590;2023-07-29T04:15:29;16.60;99.90
16728;DHT22;8482;54.396;18.590;2023-07-29T04:17:55;16.60;99.90
16728;DHT22;8482;54.396;18.590;2023-07-29T04:20:21;16.60;99.90
16728;DHT22;8482;54.396;18.590;2023-07-29T04:22:47;16.60;99.90
16728;DHT22;8482;54.396;18.590;2023-07-29T04:25:13;16.70;99.90
16728;DHT22;8482;54.396;18.590;2023-07-29T04:27:39;16.70;99.90
16728;DHT22;8482;54.396;18.590;2023-07-29T04:30:05;16.70;99.90
16728;DHT22;8482;54.396;18.590;2023-07-29T04:32:31;16.70;99.90
16728;DHT22;8482;54.396;18.590;2023-07-29T04:34:57;16.80;99.90
16728;DHT22;8482;54.396;18.590;2023-07-29T04:37:23;16.80;99.90
16728;DHT22;8482;54.396;18.590;2023-07-29T04:39:49;16.80;99.90
16728;DHT22;8482;54.396;18.590;2023-07-29T04:42:15;16.80;99.90
16728;DHT22;8482;54.396;18.590;2023-07-29T04:44:40;16.80;99.90
16728;DHT22;8482;54.396;18.590;2023-07-29T04:47:07;16.90;99.90
16728;DHT22;8482;54.396;18.590;2023-07-29T04:49:33;16.90;99.90
16728;DHT22;8482;54.396;18.590;2023-07-29T04:51:59;16.90;99.90
16728;DHT22;8482;54.396;18.590;2023-07-29T04:54:24;16.90;99.90
16728;DHT22;8482;54.396;18.590;2023-07-29T04:56:51;16.90;99.90
16728;DHT22;8482;54.396;18.590;2023-07-29T04:59:17;17.00;99.90
16728;DHT22;8482;54.396;18.590;2023-07-29T05:01:42;17.00;99.90
16728;DHT22;8482;54.396;18.590;2023-07-29T05:04:08;17.00;99.90
16728;DHT22;8482;54.396;18.590;2023-07-29T05:06:34;17.00;99.90
16728;DHT22;8482;54.396;18.590;2023-07-29T05:09:13;17.10;99.90
16728;DHT22;8482;54.396;18.590;2023-07-29T05:11:43;17.10;99.90
16728;DHT22;8482;54.396;18.590;2023-07-29T05:14:15;17.10;99.90
16728;DHT22;8482;54.396;18.590;2023-07-29T05:16:43;17.10;99.90
16728;DHT22;8482;54.396;18.590;2023-07-29T05:19:09;17.20;99.90
16728;DHT22;8482;54.396;18.590;2023-07-29T05:21:36;17.30;99.90
16728;DHT22;8482;54.396;18.590;2023-07-29T05:24:03;17.30;99.90
16728;DHT22;8482;54.396;18.590;2023-07-29T05:26:29;17.30;99.90
16728;DHT22;8482;54.396;18.590;2023-07-29T05:28:55;17.30;99.90
16728;DHT22;8482;54.396;18.590;2023-07-29T05:31:22;17.40;99.90
16728;DHT22;8482;54.396;18.590;2023-07-29T05:33:48;17.40;99.90
16728;DHT22;8482;54.396;18.590;2023-07-29T05:36:14;17.40;99.90
16728;DHT22;8482;54.396;18.590;2023-07-29T05:38:41;17.50;99.90
16728;DHT22;8482;54.396;18.590;2023-07-29T05:41:07;17.50;99.90
16728;DHT22;8482;54.396;18.590;2023-07-29T05:43:32;17.60;99.90
16728;DHT22;8482;54.396;18.590;2023-07-29T05:45:58;17.60;99.90
16728;DHT22;8482;54.396;18.590;2023-07-29T05:48:24;17.60;99.90
16728;DHT22;8482;54.396;18.590;2023-07-29T05:50:50;17.70;99.90
16728;DHT22;8482;54.396;18.590;2023-07-29T05:53:16;17.70;99.90
16728;DHT22;8482;54.396;18.590;2023-07-29T05:55:42;17.80;99.90
16728;DHT22;8482;54.396;18.590;2023-07-29T05:58:08;17.80;99.90
16728;DHT22;8482;54.396;18.590;2023-07-29T06:00:34;17.80;99.90
16728;DHT22;8482;54.396;18.590;2023-07-29T06:03:01;17.90;99.90
16728;DHT22;8482;54.396;18.590;2023-07-29T06:05:26;17.90;99.90
16728;DHT22;8482;54.396;18.590;2023-07-29T06:07:52;18.00;99.90
16728;DHT22;8482;54.396;18.590;2023-07-29T06:10:18;18.00;99.90
16728;DHT22;8482;54.396;18.590;2023-07-29T06:12:45;18.00;99.90
16728;DHT22;8482;54.396;18.590;2023-07-29T06:15:11;18.10;99.90
16728;DHT22;8482;54.396;18.590;2023-07-29T06:17:38;18.10;99.90
16728;DHT22;8482;54.396;18.590;2023-07-29T06:20:04;18.20;99.90
16728;DHT22;8482;54.396;18.590;2023-07-29T06:22:31;18.20;99.90
16728;DHT22;8482;54.396;18.590;2023-07-29T06:24:57;18.20;99.90
16728;DHT22;8482;54.396;18.590;2023-07-29T06:27:24;18.30;99.90
16728;DHT22;8482;54.396;18.590;2023-07-29T06:29:50;18.30;99.90
16728;DHT22;8482;54.396;18.590;2023-07-29T06:32:16;18.40;99.90
16728;DHT22;8482;54.396;18.590;2023-07-29T06:34:42;18.40;99.90
16728;DHT22;8482;54.396;18.590;2023-07-29T06:37:08;18.40;99.90
16728;DHT22;8482;54.396;18.590;2023-07-29T06:39:33;18.50;99.90
16728;DHT22;8482;54.396;18.590;2023-07-29T06:41:59;18.50;99.90
16728;DHT22;8482;54.396;18.590;2023-07-29T06:48:06;18.60;99.90
16728;DHT22;8482;54.396;18.590;2023-07-29T06:50:32;18.60;99.90
16728;DHT22;8482;54.396;18.590;2023-07-29T06:52:58;18.70;99.90
16728;DHT22;8482;54.396;18.590;2023-07-29T06:55:24;18.70;99.90
16728;DHT22;8482;54.396;18.590;2023-07-29T06:57:49;18.70;99.90
16728;DHT22;8482;54.396;18.590;2023-07-29T07:00:15;18.80;99.90
16728;DHT22;8482;54.396;18.590;2023-07-29T07:02:41;18.80;99.90
16728;DHT22;8482;54.396;18.590;2023-07-29T07:05:07;18.90;99.90
16728;DHT22;8482;54.396;18.590;2023-07-29T07:07:33;18.90;99.90
16728;DHT22;8482;54.396;18.590;2023-07-29T07:09:59;19.00;99.90
16728;DHT22;8482;54.396;18.590;2023-07-29T07:12:25;19.10;99.90
16728;DHT22;8482;54.396;18.590;2023-07-29T07:14:50;19.10;99.90
16728;DHT22;8482;54.396;18.590;2023-07-29T07:17:16;19.20;99.90
16728;DHT22;8482;54.396;18.590;2023-07-29T07:19:42;19.30;99.90
16728;DHT22;8482;54.396;18.590;2023-07-29T07:22:08;19.30;99.90
16728;DHT22;8482;54.396;18.590;2023-07-29T07:24:34;19.40;99.90
16728;DHT22;8482;54.396;18.590;2023-07-29T07:27:00;19.40;99.90
16728;DHT22;8482;54.396;18.590;2023-07-29T07:29:25;19.50;99.90
16728;DHT22;8482;54.396;18.590;2023-07-29T07:31:52;19.50;99.90
16728;DHT22;8482;54.396;18.590;2023-07-29T07:34:20;19.60;99.90
16728;DHT22;8482;54.396;18.590;2023-07-29T07:36:46;19.70;99.90
16728;DHT22;8482;54.396;18.590;2023-07-29T07:39:12;19.80;99.90
16728;DHT22;8482;54.396;18.590;2023-07-29T07:41:40;19.80;99.90
16728;DHT22;8482;54.396;18.590;2023-07-29T07:44:06;19.90;99.90
16728;DHT22;8482;54.396;18.590;2023-07-29T07:46:32;20.00;99.90
16728;DHT22;8482;54.396;18.590;2023-07-29T07:48:58;20.00;99.90
16728;DHT22;8482;54.396;18.590;2023-07-29T07:51:24;20.10;99.90
16728;DHT22;8482;54.396;18.590;2023-07-29T07:53:50;20.10;99.90
16728;DHT22;8482;54.396;18.590;2023-07-29T07:56:15;20.20;99.90
16728;DHT22;8482;54.396;18.590;2023-07-29T07:58:41;20.30;99.90
16728;DHT22;8482;54.396;18.590;2023-07-29T08:01:08;20.30;99.90
16728;DHT22;8482;54.396;18.590;2023-07-29T08:03:35;20.30;99.90
16728;DHT22;8482;54.396;18.590;2023-07-29T08:06:02;20.40;99.90
16728;DHT22;8482;54.396;18.590;2023-07-29T08:08:28;20.40;99.90
16728;DHT22;8482;54.396;18.590;2023-07-29T08:10:55;20.50;99.90
16728;DHT22;8482;54.396;18.590;2023-07-29T08:13:23;20.50;99.90
16728;DHT22;8482;54.396;18.590;2023-07-29T08:15:51;20.60;99.90
16728;DHT22;8482;54.396;18.590;2023-07-29T08:18:18;20.70;99.90
16728;DHT22;8482;54.396;18.590;2023-07-29T08:20:53;20.70;99.90
16728;DHT22;8482;54.396;18.590;2023-07-29T08:23:32;20.70;99.90
16728;DHT22;8482;54.396;18.590;2023-07-29T08:26:01;20.70;99.90
16728;DHT22;8482;54.396;18.590;2023-07-29T08:28:34;20.80;99.90
16728;DHT22;8482;54.396;18.590;2023-07-29T08:31:01;20.90;99.90
16728;DHT22;8482;54.396;18.590;2023-07-29T08:33:28;20.90;99.90
16728;DHT22;8482;54.396;18.590;2023-07-29T08:35:54;20.90;99.90
16728;DHT22;8482;54.396;18.590;2023-07-29T08:38:21;21.00;99.90
16728;DHT22;8482;54.396;18.590;2023-07-29T08:41:14;21.10;99.90
16728;DHT22;8482;54.396;18.590;2023-07-29T08:43:52;21.20;99.90
16728;DHT22;8482;54.396;18.590;2023-07-29T08:46:25;21.20;99.90
16728;DHT22;8482;54.396;18.590;2023-07-29T08:48:52;21.30;99.90
16728;DHT22;8482;54.396;18.590;2023-07-29T08:51:19;21.40;99.90
16728;DHT22;8482;54.396;18.590;2023-07-29T08:53:49;21.40;99.90
16728;DHT22;8482;54.396;18.590;2023-07-29T08:56:15;21.50;99.90
16728;DHT22;8482;54.396;18.590;2023-07-29T08:58:42;21.50;99.90
16728;DHT22;8482;54.396;18.590;2023-07-29T09:01:08;21.60;99.90
16728;DHT22;8482;54.396;18.590;2023-07-29T09:03:34;21.70;99.90
16728;DHT22;8482;54.396;18.590;2023-07-29T09:06:01;21.70;99.40
16728;DHT22;8482;54.396;18.590;2023-07-29T09:08:28;21.80;99.20
16728;DHT22;8482;54.396;18.590;2023-07-29T09:10:55;21.90;98.80
16728;DHT22;8482;54.396;18.590;2023-07-29T09:13:21;22.00;98.70
16728;DHT22;8482;54.396;18.590;2023-07-29T09:15:47;22.00;98.60
16728;DHT22;8482;54.396;18.590;2023-07-29T09:18:19;22.00;98.50
16728;DHT22;8482;54.396;18.590;2023-07-29T09:20:50;22.10;98.40
16728;DHT22;8482;54.396;18.590;2023-07-29T09:23:16;22.20;98.20
16728;DHT22;8482;54.396;18.590;2023-07-29T09:25:42;22.20;97.50
16728;DHT22;8482;54.396;18.590;2023-07-29T09:28:13;22.30;96.90
16728;DHT22;8482;54.396;18.590;2023-07-29T09:30:42;22.30;96.30
16728;DHT22;8482;54.396;18.590;2023-07-29T09:33:11;22.40;96.00
16728;DHT22;8482;54.396;18.590;2023-07-29T09:35:38;22.50;95.60
16728;DHT22;8482;54.396;18.590;2023-07-29T09:38:07;22.50;95.30
16728;DHT22;8482;54.396;18.590;2023-07-29T09:40:38;22.50;95.10
16728;DHT22;8482;54.396;18.590;2023-07-29T09:43:06;22.60;95.70
16728;DHT22;8482;54.396;18.590;2023-07-29T09:45:35;22.70;95.60
16728;DHT22;8482;54.396;18.590;2023-07-29T09:48:04;22.80;94.90
16728;DHT22;8482;54.396;18.590;2023-07-29T09:50:35;22.90;94.90
16728;DHT22;8482;54.396;18.590;2023-07-29T09:53:01;23.00;95.40
16728;DHT22;8482;54.396;18.590;2023-07-29T09:55:28;23.10;95.10
16728;DHT22;8482;54.396;18.590;2023-07-29T09:57:59;23.10;94.50
16728;DHT22;8482;54.396;18.590;2023-07-29T10:00:29;23.20;94.80
16728;DHT22;8482;54.396;18.590;2023-07-29T10:02:58;23.30;94.10
16728;DHT22;8482;54.396;18.590;2023-07-29T10:05:28;23.30;92.30
16728;DHT22;8482;54.396;18.590;2023-07-29T10:07:55;23.30;91.20
16728;DHT22;8482;54.396;18.590;2023-07-29T10:10:22;23.30;91.00
16728;DHT22;8482;54.396;18.590;2023-07-29T10:12:49;23.30;90.30
16728;DHT22;8482;54.396;18.590;2023-07-29T10:15:15;23.30;89.00
16728;DHT22;8482;54.396;18.590;2023-07-29T10:17:42;23.30;87.90
16728;DHT22;8482;54.396;18.590;2023-07-29T10:20:11;23.40;88.70
16728;DHT22;8482;54.396;18.590;2023-07-29T10:22:42;23.40;89.30
16728;DHT22;8482;54.396;18.590;2023-07-29T10:25:17;23.50;90.40
16728;DHT22;8482;54.396;18.590;2023-07-29T10:28:08;23.60;90.30
16728;DHT22;8482;54.396;18.590;2023-07-29T10:30:38;23.70;89.80
16728;DHT22;8482;54.396;18.590;2023-07-29T10:33:05;23.70;89.10
16728;DHT22;8482;54.396;18.590;2023-07-29T10:35:35;23.80;88.40
16728;DHT22;8482;54.396;18.590;2023-07-29T10:38:03;23.90;87.50
16728;DHT22;8482;54.396;18.590;2023-07-29T10:40:52;24.00;86.80
16728;DHT22;8482;54.396;18.590;2023-07-29T10:43:34;24.10;85.10
16728;DHT22;8482;54.396;18.590;2023-07-29T10:46:22;24.20;83.50
16728;DHT22;8482;54.396;18.590;2023-07-29T10:48:55;24.20;82.60
16728;DHT22;8482;54.396;18.590;2023-07-29T10:51:35;24.30;82.40
16728;DHT22;8482;54.396;18.590;2023-07-29T10:54:13;24.40;82.10
16728;DHT22;8482;54.396;18.590;2023-07-29T10:56:46;24.40;82.00
16728;DHT22;8482;54.396;18.590;2023-07-29T11:01:45;24.60;80.30
16728;DHT22;8482;54.396;18.590;2023-07-29T11:15:06;24.90;80.00
16728;DHT22;8482;54.396;18.590;2023-07-29T11:17:42;25.00;79.80
16728;DHT22;8482;54.396;18.590;2023-07-29T11:20:11;25.10;79.30
16728;DHT22;8482;54.396;18.590;2023-07-29T11:22:38;25.20;78.50
16728;DHT22;8482;54.396;18.590;2023-07-29T11:25:06;25.30;77.50
16728;DHT22;8482;54.396;18.590;2023-07-29T11:27:34;25.40;76.50
16728;DHT22;8482;54.396;18.590;2023-07-29T11:30:02;25.40;76.60
16728;DHT22;8482;54.396;18.590;2023-07-29T11:32:31;25.50;76.80
16728;DHT22;8482;54.396;18.590;2023-07-29T11:35:05;25.60;76.60
16728;DHT22;8482;54.396;18.590;2023-07-29T11:37:34;25.60;76.30
16728;DHT22;8482;54.396;18.590;2023-07-29T11:40:00;25.70;76.00
16728;DHT22;8482;54.396;18.590;2023-07-29T11:42:27;25.70;75.80
16728;DHT22;8482;54.396;18.590;2023-07-29T11:44:56;25.80;75.60
16728;DHT22;8482;54.396;18.590;2023-07-29T11:47:23;25.90;75.80
16728;DHT22;8482;54.396;18.590;2023-07-29T11:49:49;26.00;76.60
16728;DHT22;8482;54.396;18.590;2023-07-29T11:52:15;26.10;76.60
16728;DHT22;8482;54.396;18.590;2023-07-29T11:54:47;26.10;76.20
16728;DHT22;8482;54.396;18.590;2023-07-29T11:57:14;26.10;75.40
16728;DHT22;8482;54.396;18.590;2023-07-29T11:59:41;26.10;74.50
16728;DHT22;8482;54.396;18.590;2023-07-29T12:02:14;26.10;73.10
16728;DHT22;8482;54.396;18.590;2023-07-29T12:04:43;26.10;73.10
16728;DHT22;8482;54.396;18.590;2023-07-29T12:07:13;26.00;73.20
16728;DHT22;8482;54.396;18.590;2023-07-29T12:09:41;26.00;73.70
16728;DHT22;8482;54.396;18.590;2023-07-29T12:12:08;26.00;74.00
16728;DHT22;8482;54.396;18.590;2023-07-29T12:14:35;26.10;73.80
16728;DHT22;8482;54.396;18.590;2023-07-29T12:17:02;26.10;73.60
16728;DHT22;8482;54.396;18.590;2023-07-29T12:19:34;26.20;73.90
16728;DHT22;8482;54.396;18.590;2023-07-29T12:22:03;26.30;74.20
16728;DHT22;8482;54.396;18.590;2023-07-29T12:24:34;26.30;74.00
16728;DHT22;8482;54.396;18.590;2023-07-29T12:27:02;26.50;74.00
16728;DHT22;8482;54.396;18.590;2023-07-29T12:29:28;26.60;74.00
16728;DHT22;8482;54.396;18.590;2023-07-29T12:32:02;26.60;73.30
16728;DHT22;8482;54.396;18.590;2023-07-29T12:34:30;26.70;72.30
16728;DHT22;8482;54.396;18.590;2023-07-29T12:36:58;26.70;71.80
16728;DHT22;8482;54.396;18.590;2023-07-29T12:39:26;26.80;72.00
16728;DHT22;8482;54.396;18.590;2023-07-29T12:41:55;26.80;72.40
16728;DHT22;8482;54.396;18.590;2023-07-29T12:44:26;26.90;72.70
16728;DHT22;8482;54.396;18.590;2023-07-29T12:46:55;27.00;73.00
16728;DHT22;8482;54.396;18.590;2023-07-29T12:49:20;27.00;72.60
16728;DHT22;8482;54.396;18.590;2023-07-29T12:51:47;27.00;72.50
16728;DHT22;8482;54.396;18.590;2023-07-29T12:54:14;27.00;72.70
16728;DHT22;8482;54.396;18.590;2023-07-29T12:56:39;27.00;73.10
16728;DHT22;8482;54.396;18.590;2023-07-29T12:59:06;27.00;73.00
16728;DHT22;8482;54.396;18.590;2023-07-29T13:01:32;26.90;72.90
16728;DHT22;8482;54.396;18.590;2023-07-29T13:03:57;26.90;73.00
16728;DHT22;8482;54.396;18.590;2023-07-29T13:06:23;26.90;73.00
16728;DHT22;8482;54.396;18.590;2023-07-29T13:08:49;26.90;73.20
16728;DHT22;8482;54.396;18.590;2023-07-29T13:11:16;26.80;73.40
16728;DHT22;8482;54.396;18.590;2023-07-29T13:13:42;26.80;73.60
16728;DHT22;8482;54.396;18.590;2023-07-29T13:16:09;26.70;73.90
16728;DHT22;8482;54.396;18.590;2023-07-29T13:18:35;26.60;74.30
16728;DHT22;8482;54.396;18.590;2023-07-29T13:21:01;26.50;74.60
16728;DHT22;8482;54.396;18.590;2023-07-29T13:23:27;26.40;75.30
16728;DHT22;8482;54.396;18.590;2023-07-29T13:25:55;26.40;75.90
16728;DHT22;8482;54.396;18.590;2023-07-29T13:28:21;26.30;76.50
16728;DHT22;8482;54.396;18.590;2023-07-29T13:30:48;26.30;77.30
16728;DHT22;8482;54.396;18.590;2023-07-29T13:33:13;26.20;77.80
16728;DHT22;8482;54.396;18.590;2023-07-29T13:35:39;26.10;78.50
16728;DHT22;8482;54.396;18.590;2023-07-29T13:38:05;26.10;79.10
16728;DHT22;8482;54.396;18.590;2023-07-29T13:40:31;26.00;79.50
16728;DHT22;8482;54.396;18.590;2023-07-29T13:42:57;25.90;80.90
16728;DHT22;8482;54.396;18.590;2023-07-29T13:45:23;25.90;80.90
16728;DHT22;8482;54.396;18.590;2023-07-29T13:47:49;25.90;82.00
16728;DHT22;8482;54.396;18.590;2023-07-29T13:50:19;25.90;82.30
16728;DHT22;8482;54.396;18.590;2023-07-29T13:52:45;25.90;82.60
16728;DHT22;8482;54.396;18.590;2023-07-29T13:55:11;25.90;82.80
16728;DHT22;8482;54.396;18.590;2023-07-29T13:57:38;25.90;82.80
16728;DHT22;8482;54.396;18.590;2023-07-29T14:00:05;26.00;82.70
16728;DHT22;8482;54.396;18.590;2023-07-29T14:02:32;26.00;82.60
16728;DHT22;8482;54.396;18.590;2023-07-29T14:04:58;26.10;82.50
16728;DHT22;8482;54.396;18.590;2023-07-29T14:07:24;26.10;82.70
16728;DHT22;8482;54.396;18.590;2023-07-29T14:09:50;26.20;82.70
16728;DHT22;8482;54.396;18.590;2023-07-29T14:12:16;26.20;83.20
16728;DHT22;8482;54.396;18.590;2023-07-29T14:14:42;26.30;84.00
16728;DHT22;8482;54.396;18.590;2023-07-29T14:17:08;26.40;83.80
16728;DHT22;8482;54.396;18.590;2023-07-29T14:19:34;26.40;83.20
16728;DHT22;8482;54.396;18.590;2023-07-29T14:22:00;26.50;83.00
16728;DHT22;8482;54.396;18.590;2023-07-29T14:24:26;26.60;83.30
16728;DHT22;8482;54.396;18.590;2023-07-29T14:26:52;26.70;83.70
16728;DHT22;8482;54.396;18.590;2023-07-29T14:29:17;26.80;84.00
16728;DHT22;8482;54.396;18.590;2023-07-29T14:31:43;26.80;83.70
16728;DHT22;8482;54.396;18.590;2023-07-29T14:34:09;26.80;83.40
16728;DHT22;8482;54.396;18.590;2023-07-29T14:36:36;26.80;83.00
16728;DHT22;8482;54.396;18.590;2023-07-29T14:39:02;26.80;82.60
16728;DHT22;8482;54.396;18.590;2023-07-29T14:41:29;26.80;83.00
16728;DHT22;8482;54.396;18.590;2023-07-29T14:43:56;26.80;83.00
16728;DHT22;8482;54.396;18.590;2023-07-29T14:46:22;26.90;83.40
16728;DHT22;8482;54.396;18.590;2023-07-29T14:48:48;27.00;84.70
16728;DHT22;8482;54.396;18.590;2023-07-29T14:51:14;27.00;84.20
16728;DHT22;8482;54.396;18.590;2023-07-29T14:53:40;27.10;83.70
16728;DHT22;8482;54.396;18.590;2023-07-29T14:56:06;27.20;83.50
16728;DHT22;8482;54.396;18.590;2023-07-29T14:58:32;27.20;83.10
16728;DHT22;8482;54.396;18.590;2023-07-29T15:00:58;27.30;82.70
16728;DHT22;8482;54.396;18.590;2023-07-29T15:03:24;27.20;82.60
16728;DHT22;8482;54.396;18.590;2023-07-29T15:05:51;27.20;83.20
16728;DHT22;8482;54.396;18.590;2023-07-29T15:08:17;27.20;83.70
16728;DHT22;8482;54.396;18.590;2023-07-29T15:10:47;27.20;84.30
16728;DHT22;8482;54.396;18.590;2023-07-29T15:13:14;27.20;84.90
16728;DHT22;8482;54.396;18.590;2023-07-29T15:15:43;27.20;85.20
16728;DHT22;8482;54.396;18.590;2023-07-29T15:18:10;27.20;84.70
16728;DHT22;8482;54.396;18.590;2023-07-29T15:20:36;27.30;84.80
16728;DHT22;8482;54.396;18.590;2023-07-29T15:23:01;27.30;84.50
16728;DHT22;8482;54.396;18.590;2023-07-29T15:25:27;27.40;84.30
16728;DHT22;8482;54.396;18.590;2023-07-29T15:27:53;27.50;85.70
16728;DHT22;8482;54.396;18.590;2023-07-29T15:30:19;27.70;86.20
16728;DHT22;8482;54.396;18.590;2023-07-29T15:32:45;27.80;85.60
16728;DHT22;8482;54.396;18.590;2023-07-29T15:35:11;27.90;84.20
16728;DHT22;8482;54.396;18.590;2023-07-29T15:37:37;28.00;84.00
16728;DHT22;8482;54.396;18.590;2023-07-29T15:40:05;28.00;84.90
16728;DHT22;8482;54.396;18.590;2023-07-29T15:42:32;27.90;85.80
16728;DHT22;8482;54.396;18.590;2023-07-29T15:44:58;27.80;87.00
16728;DHT22;8482;54.396;18.590;2023-07-29T15:47:24;27.70;87.40
16728;DHT22;8482;54.396;18.590;2023-07-29T15:49:50;27.50;87.80
16728;DHT22;8482;54.396;18.590;2023-07-29T15:52:16;27.40;88.40
16728;DHT22;8482;54.396;18.590;2023-07-29T15:54:42;27.20;89.10